sensor_id;sensor_type;location;lat;lon;timestamp;temperature;humidity
47590;DHT22;33316;52.298;9.056;2022-10-31T00:00:06;16.50;77.30
47590;DHT22;33316;52.298;9.056;2022-10-31T00:02:33;16.50;77.30
47590;DHT22;33316;52.298;9.056;2022-10-31T00:05:02;16.40;77.30
47590;DHT22;33316;52.298;9.056;2022-10-31T00:07:28;16.40;77.40
47590;DHT22;33316;52.298;9.056;2022-10-31T00:09:55;16.40;77.50
47590;DHT22;33316;52.298;9.056;2022-10-31T00:12:22;16.40;77.50
47590;DHT22;33316;52.298;9.056;2022-10-31T00:14:49;16.30;77.50
47590;DHT22;33316;52.298;9.056;2022-10-31T00:17:16;16.30;77.70
47590;DHT22;33316;52.298;9.056;2022-10-31T00:19:42;16.30;77.80
47590;DHT22;33316;52.298;9.056;2022-10-31T00:22:10;16.30;77.90
47590;DHT22;33316;52.298;9.056;2022-10-31T00:24:37;16.30;78.00
47590;DHT22;33316;52.298;9.056;2022-10-31T00:27:04;16.20;78.00
47590;DHT22;33316;52.298;9.056;2022-10-31T00:29:31;16.20;78.10
47590;DHT22;33316;52.298;9.056;2022-10-31T00:31:57;16.20;78.20
47590;DHT22;33316;52.298;9.056;2022-10-31T00:34:24;16.20;79.10
47590;DHT22;33316;52.298;9.056;2022-10-31T00:36:51;16.20;78.40
47590;DHT22;33316;52.298;9.056;2022-10-31T00:39:19;16.20;78.50
47590;DHT22;33316;52.298;9.056;2022-10-31T00:41:46;16.20;78.60
47590;DHT22;33316;52.298;9.056;2022-10-31T00:44:12;16.20;78.60
47590;DHT22;33316;52.298;9.056;2022-10-31T00:46:39;16.20;78.70
47590;DHT22;33316;52.298;9.056;2022-10-31T00:49:06;16.10;78.80
47590;DHT22;33316;52.298;9.056;2022-10-31T00:51:32;16.20;79.00
47590;DHT22;33316;52.298;9.056;2022-10-31T00:53:59;16.10;79.00
47590;DHT22;33316;52.298;9.056;2022-10-31T00:56:27;16.10;79.10
47590;DHT22;33316;52.298;9.056;2022-10-31T00:58:54;16.10;79.20
47590;DHT22;33316;52.298;9.056;2022-10-31T01:01:21;16.10;79.30
47590;DHT22;33316;52.298;9.056;2022-10-31T01:03:47;16.10;79.40
47590;DHT22;33316;52.298;9.056;2022-10-31T01:06:14;16.10;79.60
47590;DHT22;33316;52.298;9.056;2022-10-31T01:08:41;16.10;79.70
47590;DHT22;33316;52.298;9.056;2022-10-31T01:11:11;16.10;79.80
47590;DHT22;33316;52.298;9.056;2022-10-31T01:13:40;16.00;79.90
47590;DHT22;33316;52.298;9.056;2022-10-31T01:16:10;16.10;80.80
47590;DHT22;33316;52.298;9.056;2022-10-31T01:18:37;16.00;80.00
47590;DHT22;33316;52.298;9.056;2022-10-31T01:21:06;16.00;80.10
47590;DHT22;33316;52.298;9.056;2022-10-31T01:23:33;16.00;80.20
47590;DHT22;33316;52.298;9.056;2022-10-31T01:26:05;15.90;80.40
47590;DHT22;33316;52.298;9.056;2022-10-31T01:28:33;15.90;80.50
47590;DHT22;33316;52.298;9.056;2022-10-31T01:31:02;15.90;80.50
47590;DHT22;33316;52.298;9.056;2022-10-31T01:33:29;15.90;80.60
47590;DHT22;33316;52.298;9.056;2022-10-31T01:35:56;15.90;80.60
47590;DHT22;33316;52.298;9.056;2022-10-31T01:38:23;15.80;80.70
47590;DHT22;33316;52.298;9.056;2022-10-31T01:40:52;15.80;80.80
47590;DHT22;33316;52.298;9.056;2022-10-31T01:43:19;15.80;80.90
47590;DHT22;33316;52.298;9.056;2022-10-31T01:45:50;15.80;81.00
47590;DHT22;33316;52.298;9.056;2022-10-31T01:48:21;15.70;81.10
47590;DHT22;33316;52.298;9.056;2022-10-31T01:50:52;15.70;81.20
47590;DHT22;33316;52.298;9.056;2022-10-31T01:53:20;15.70;81.20
47590;DHT22;33316;52.298;9.056;2022-10-31T01:55:47;15.70;81.40
47590;DHT22;33316;52.298;9.056;2022-10-31T01:58:18;15.60;81.40
47590;DHT22;33316;52.298;9.056;2022-10-31T02:00:47;15.60;81.50
47590;DHT22;33316;52.298;9.056;2022-10-31T02:03:15;15.60;81.50
47590;DHT22;33316;52.298;9.056;2022-10-31T02:05:44;15.60;81.60
47590;DHT22;33316;52.298;9.056;2022-10-31T02:08:15;15.60;81.70
47590;DHT22;33316;52.298;9.056;2022-10-31T02:10:43;15.60;81.80
47590;DHT22;33316;52.298;9.056;2022-10-31T02:13:10;15.60;81.90
47590;DHT22;33316;52.298;9.056;2022-10-31T02:15:39;15.60;81.90
47590;DHT22;33316;52.298;9.056;2022-10-31T02:18:07;15.60;82.00
47590;DHT22;33316;52.298;9.056;2022-10-31T02:20:42;15.60;82.10
47590;DHT22;33316;52.298;9.056;2022-10-31T02:26:41;15.50;82.10
47590;DHT22;33316;52.298;9.056;2022-10-31T02:32:38;15.40;82.20
47590;DHT22;33316;52.298;9.056;2022-10-31T02:35:13;15.40;81.80
47590;DHT22;33316;52.298;9.056;2022-10-31T02:37:47;15.40;81.80
47590;DHT22;33316;52.298;9.056;2022-10-31T02:40:20;15.40;81.70
47590;DHT22;33316;52.298;9.056;2022-10-31T02:42:53;15.30;81.40
47590;DHT22;33316;52.298;9.056;2022-10-31T02:45:27;15.30;81.50
47590;DHT22;33316;52.298;9.056;2022-10-31T02:47:58;15.30;81.50
47590;DHT22;33316;52.298;9.056;2022-10-31T02:50:29;15.20;81.50
47590;DHT22;33316;52.298;9.056;2022-10-31T02:52:57;15.10;81.40
47590;DHT22;33316;52.298;9.056;2022-10-31T02:55:47;15.10;81.40
47590;DHT22;33316;52.298;9.056;2022-10-31T02:58:19;15.10;81.70
47590;DHT22;33316;52.298;9.056;2022-10-31T03:03:53;15.00;81.80
47590;DHT22;33316;52.298;9.056;2022-10-31T03:06:29;15.00;82.00
47590;DHT22;33316;52.298;9.056;2022-10-31T03:09:03;14.90;82.00
47590;DHT22;33316;52.298;9.056;2022-10-31T03:11:35;15.00;82.10
47590;DHT22;33316;52.298;9.056;2022-10-31T03:14:10;15.00;82.30
47590;DHT22;33316;52.298;9.056;2022-10-31T03:16:45;14.90;82.40
47590;DHT22;33316;52.298;9.056;2022-10-31T03:19:17;14.90;83.30
47590;DHT22;33316;52.298;9.056;2022-10-31T03:21:46;14.90;82.80
47590;DHT22;33316;52.298;9.056;2022-10-31T03:24:15;14.90;82.90
47590;DHT22;33316;52.298;9.056;2022-10-31T03:26:46;14.90;82.60
47590;DHT22;33316;52.298;9.056;2022-10-31T03:29:16;14.80;82.30
47590;DHT22;33316;52.298;9.056;2022-10-31T03:31:49;14.80;82.10
47590;DHT22;33316;52.298;9.056;2022-10-31T03:34:19;14.80;82.00
47590;DHT22;33316;52.298;9.056;2022-10-31T03:36:50;14.70;81.90
47590;DHT22;33316;52.298;9.056;2022-10-31T03:39:19;14.70;82.10
47590;DHT22;33316;52.298;9.056;2022-10-31T03:41:50;14.60;82.30
47590;DHT22;33316;52.298;9.056;2022-10-31T03:44:20;14.60;83.40
47590;DHT22;33316;52.298;9.056;2022-10-31T03:46:48;14.60;82.70
47590;DHT22;33316;52.298;9.056;2022-10-31T03:49:16;14.60;82.80
47590;DHT22;33316;52.298;9.056;2022-10-31T03:51:48;14.50;83.00
47590;DHT22;33316;52.298;9.056;2022-10-31T03:54:23;14.60;83.30
47590;DHT22;33316;52.298;9.056;2022-10-31T03:56:53;14.50;83.30
47590;DHT22;33316;52.298;9.056;2022-10-31T03:59:24;14.50;83.40
47590;DHT22;33316;52.298;9.056;2022-10-31T04:01:56;14.50;83.40
47590;DHT22;33316;52.298;9.056;2022-10-31T04:04:25;14.50;83.50
47590;DHT22;33316;52.298;9.056;2022-10-31T04:06:54;14.40;83.50
47590;DHT22;33316;52.298;9.056;2022-10-31T04:09:22;14.50;83.80
47590;DHT22;33316;52.298;9.056;2022-10-31T04:11:53;14.40;84.00
47590;DHT22;33316;52.298;9.056;2022-10-31T04:14:20;14.50;83.90
47590;DHT22;33316;52.298;9.056;2022-10-31T04:16:48;14.40;83.60
47590;DHT22;33316;52.298;9.056;2022-10-31T04:19:15;14.40;83.50
47590;DHT22;33316;52.298;9.056;2022-10-31T04:21:42;14.40;83.20
47590;DHT22;33316;52.298;9.056;2022-10-31T04:24:11;14.40;83.20
47590;DHT22;33316;52.298;9.056;2022-10-31T04:26:38;14.40;83.30
47590;DHT22;33316;52.298;9.056;2022-10-31T04:29:04;14.30;83.60
47590;DHT22;33316;52.298;9.056;2022-10-31T04:31:31;14.30;83.90
47590;DHT22;33316;52.298;9.056;2022-10-31T04:33:58;14.30;84.00
47590;DHT22;33316;52.298;9.056;2022-10-31T04:36:25;14.30;84.10
47590;DHT22;33316;52.298;9.056;2022-10-31T04:38:52;14.30;84.20
47590;DHT22;33316;52.298;9.056;2022-10-31T04:41:20;14.30;84.10
47590;DHT22;33316;52.298;9.056;2022-10-31T04:43:47;14.30;84.20
47590;DHT22;33316;52.298;9.056;2022-10-31T04:46:13;14.20;84.10
47590;DHT22;33316;52.298;9.056;2022-10-31T04:48:40;14.20;84.00
47590;DHT22;33316;52.298;9.056;2022-10-31T04:51:07;14.20;84.00
47590;DHT22;33316;52.298;9.056;2022-10-31T04:53:33;14.20;83.90
47590;DHT22;33316;52.298;9.056;2022-10-31T04:56:00;14.10;83.60
47590;DHT22;33316;52.298;9.056;2022-10-31T04:58:29;14.10;83.70
47590;DHT22;33316;52.298;9.056;2022-10-31T05:00:56;14.10;83.80
47590;DHT22;33316;52.298;9.056;2022-10-31T05:03:23;14.10;83.80
47590;DHT22;33316;52.298;9.056;2022-10-31T05:05:50;14.00;83.60
47590;DHT22;33316;52.298;9.056;2022-10-31T05:08:16;14.00;83.50
47590;DHT22;33316;52.298;9.056;2022-10-31T05:10:43;14.00;83.40
47590;DHT22;33316;52.298;9.056;2022-10-31T05:13:10;14.00;83.50
47590;DHT22;33316;52.298;9.056;2022-10-31T05:15:38;13.90;83.50
47590;DHT22;33316;52.298;9.056;2022-10-31T05:18:05;13.90;83.50
47590;DHT22;33316;52.298;9.056;2022-10-31T05:20:32;13.90;83.80
47590;DHT22;33316;52.298;9.056;2022-10-31T05:22:59;13.90;84.20
47590;DHT22;33316;52.298;9.056;2022-10-31T05:25:28;13.90;84.10
47590;DHT22;33316;52.298;9.056;2022-10-31T05:27:55;13.90;84.20
47590;DHT22;33316;52.298;9.056;2022-10-31T05:30:24;13.90;84.30
47590;DHT22;33316;52.298;9.056;2022-10-31T05:32:52;13.80;85.10
47590;DHT22;33316;52.298;9.056;2022-10-31T05:35:21;13.80;84.50
47590;DHT22;33316;52.298;9.056;2022-10-31T05:37:48;13.80;84.60
47590;DHT22;33316;52.298;9.056;2022-10-31T05:40:16;13.80;84.40
47590;DHT22;33316;52.298;9.056;2022-10-31T05:42:44;13.80;84.10
47590;DHT22;33316;52.298;9.056;2022-10-31T05:45:13;13.70;83.60
47590;DHT22;33316;52.298;9.056;2022-10-31T05:47:40;13.70;83.40
47590;DHT22;33316;52.298;9.056;2022-10-31T05:50:09;13.70;83.30
47590;DHT22;33316;52.298;9.056;2022-10-31T05:52:36;13.60;83.10
47590;DHT22;33316;52.298;9.056;2022-10-31T05:55:03;13.60;83.00
47590;DHT22;33316;52.298;9.056;2022-10-31T05:57:31;13.50;82.80
47590;DHT22;33316;52.298;9.056;2022-10-31T06:00:00;13.50;82.70
47590;DHT22;33316;52.298;9.056;2022-10-31T06:02:27;13.50;82.90
47590;DHT22;33316;52.298;9.056;2022-10-31T06:04:57;13.40;83.10
47590;DHT22;33316;52.298;9.056;2022-10-31T06:07:25;13.40;83.10
47590;DHT22;33316;52.298;9.056;2022-10-31T06:09:52;13.40;83.00
47590;DHT22;33316;52.298;9.056;2022-10-31T06:12:19;13.30;82.90
47590;DHT22;33316;52.298;9.056;2022-10-31T06:14:46;13.30;82.90
47590;DHT22;33316;52.298;9.056;2022-10-31T06:17:12;13.30;82.90
47590;DHT22;33316;52.298;9.056;2022-10-31T06:19:39;13.20;83.30
47590;DHT22;33316;52.298;9.056;2022-10-31T06:22:06;13.20;83.90
47590;DHT22;33316;52.298;9.056;2022-10-31T06:24:34;13.30;84.20
47590;DHT22;33316;52.298;9.056;2022-10-31T06:27:01;13.30;84.00
47590;DHT22;33316;52.298;9.056;2022-10-31T06:29:27;13.30;83.80
47590;DHT22;33316;52.298;9.056;2022-10-31T06:31:54;13.20;84.50
47590;DHT22;33316;52.298;9.056;2022-10-31T06:34:21;13.20;83.70
47590;DHT22;33316;52.298;9.056;2022-10-31T06:36:48;13.20;83.70
47590;DHT22;33316;52.298;9.056;2022-10-31T06:39:15;13.20;83.90
47590;DHT22;33316;52.298;9.056;2022-10-31T06:41:43;13.20;84.10
47590;DHT22;33316;52.298;9.056;2022-10-31T06:44:10;13.20;84.20
47590;DHT22;33316;52.298;9.056;2022-10-31T06:46:36;13.20;84.40
47590;DHT22;33316;52.298;9.056;2022-10-31T06:49:03;13.20;84.40
47590;DHT22;33316;52.298;9.056;2022-10-31T06:51:30;13.20;84.20
47590;DHT22;33316;52.298;9.056;2022-10-31T06:53:57;13.20;84.10
47590;DHT22;33316;52.298;9.056;2022-10-31T06:56:23;13.20;84.10
47590;DHT22;33316;52.298;9.056;2022-10-31T06:58:51;13.20;84.40
47590;DHT22;33316;52.298;9.056;2022-10-31T07:01:18;13.20;84.50
47590;DHT22;33316;52.298;9.056;2022-10-31T07:03:45;13.20;84.60
47590;DHT22;33316;52.298;9.056;2022-10-31T07:06:12;13.20;84.80
47590;DHT22;33316;52.298;9.056;2022-10-31T07:08:38;13.30;85.00
47590;DHT22;33316;52.298;9.056;2022-10-31T07:11:05;13.30;85.10
47590;DHT22;33316;52.298;9.056;2022-10-31T07:13:32;13.30;84.90
47590;DHT22;33316;52.298;9.056;2022-10-31T07:16:03;13.30;84.80
47590;DHT22;33316;52.298;9.056;2022-10-31T07:18:30;13.30;84.80
47590;DHT22;33316;52.298;9.056;2022-10-31T07:20:57;13.30;84.80
47590;DHT22;33316;52.298;9.056;2022-10-31T07:23:23;13.30;84.90
47590;DHT22;33316;52.298;9.056;2022-10-31T07:25:54;13.40;85.10
47590;DHT22;33316;52.298;9.056;2022-10-31T07:28:22;13.40;85.30
47590;DHT22;33316;52.298;9.056;2022-10-31T07:30:50;13.50;85.40
47590;DHT22;33316;52.298;9.056;2022-10-31T07:33:18;13.50;85.50
47590;DHT22;33316;52.298;9.056;2022-10-31T07:35:45;13.50;85.40
47590;DHT22;33316;52.298;9.056;2022-10-31T07:38:13;13.60;85.20
47590;DHT22;33316;52.298;9.056;2022-10-31T07:40:40;13.60;85.00
47590;DHT22;33316;52.298;9.056;2022-10-31T07:43:07;13.60;84.80
47590;DHT22;33316;52.298;9.056;2022-10-31T07:45:34;13.60;84.70
47590;DHT22;33316;52.298;9.056;2022-10-31T07:48:01;13.70;84.60
47590;DHT22;33316;52.298;9.056;2022-10-31T07:50:31;13.70;84.50
47590;DHT22;33316;52.298;9.056;2022-10-31T07:52:59;13.70;84.40
47590;DHT22;33316;52.298;9.056;2022-10-31T07:55:27;13.80;84.40
47590;DHT22;33316;52.298;9.056;2022-10-31T07:57:58;13.80;84.40
47590;DHT22;33316;52.298;9.056;2022-10-31T08:00:25;13.90;84.40
47590;DHT22;33316;52.298;9.056;2022-10-31T08:02:59;13.90;84.40
47590;DHT22;33316;52.298;9.056;2022-10-31T08:05:26;13.90;84.40
47590;DHT22;33316;52.298;9.056;2022-10-31T08:07:54;13.90;84.50
47590;DHT22;33316;52.298;9.056;2022-10-31T08:10:22;13.90;84.60
47590;DHT22;33316;52.298;9.056;2022-10-31T08:12:55;14.00;85.20
47590;DHT22;33316;52.298;9.056;2022-10-31T08:15:22;14.00;85.10
47590;DHT22;33316;52.298;9.056;2022-10-31T08:17:48;14.10;85.20
47590;DHT22;33316;52.298;9.056;2022-10-31T08:20:15;14.20;85.20
47590;DHT22;33316;52.298;9.056;2022-10-31T08:22:42;14.30;85.30
47590;DHT22;33316;52.298;9.056;2022-10-31T08:25:11;14.40;85.50
47590;DHT22;33316;52.298;9.056;2022-10-31T08:27:37;14.50;85.80
47590;DHT22;33316;52.298;9.056;2022-10-31T08:30:05;14.60;85.70
47590;DHT22;33316;52.298;9.056;2022-10-31T08:32:32;14.70;85.60
47590;DHT22;33316;52.298;9.056;2022-10-31T08:34:59;14.80;85.60
47590;DHT22;33316;52.298;9.056;2022-10-31T08:37:26;14.80;85.50
47590;DHT22;33316;52.298;9.056;2022-10-31T08:39:52;14.90;85.60
47590;DHT22;33316;52.298;9.056;2022-10-31T08:42:20;15.00;85.70
47590;DHT22;33316;52.298;9.056;2022-10-31T08:44:47;15.10;85.80
47590;DHT22;33316;52.298;9.056;2022-10-31T08:47:14;15.10;85.80
47590;DHT22;33316;52.298;9.056;2022-10-31T08:49:41;15.20;86.00
47590;DHT22;33316;52.298;9.056;2022-10-31T08:52:07;15.30;86.10
47590;DHT22;33316;52.298;9.056;2022-10-31T08:54:34;15.40;86.20
47590;DHT22;33316;52.298;9.056;2022-10-31T08:57:01;15.40;86.20
47590;DHT22;33316;52.298;9.056;2022-10-31T08:59:29;15.50;86.40
47590;DHT22;33316;52.298;9.056;2022-10-31T09:01:56;15.50;86.40
47590;DHT22;33316;52.298;9.056;2022-10-31T09:04:22;15.50;86.40
47590;DHT22;33316;52.298;9.056;2022-10-31T09:06:49;15.60;86.50
47590;DHT22;33316;52.298;9.056;2022-10-31T09:09:16;15.60;86.40
47590;DHT22;33316;52.298;9.056;2022-10-31T09:11:43;15.70;86.60
47590;DHT22;33316;52.298;9.056;2022-10-31T09:14:09;15.70;86.50
47590;DHT22;33316;52.298;9.056;2022-10-31T09:16:37;15.70;86.50
47590;DHT22;33316;52.298;9.056;2022-10-31T09:19:04;15.80;86.60
47590;DHT22;33316;52.298;9.056;2022-10-31T09:21:31;15.80;86.30
47590;DHT22;33316;52.298;9.056;2022-10-31T09:23:58;15.80;86.30
47590;DHT22;33316;52.298;9.056;2022-10-31T09:26:24;15.90;86.20
47590;DHT22;33316;52.298;9.056;2022-10-31T09:28:51;16.00;86.40
47590;DHT22;33316;52.298;9.056;2022-10-31T09:31:18;16.00;86.40
47590;DHT22;33316;52.298;9.056;2022-10-31T09:33:46;16.00;86.60
47590;DHT22;33316;52.298;9.056;2022-10-31T09:36:13;16.00;86.60
47590;DHT22;33316;52.298;9.056;2022-10-31T09:38:39;16.10;86.60
47590;DHT22;33316;52.298;9.056;2022-10-31T09:41:13;16.10;86.50
47590;DHT22;33316;52.298;9.056;2022-10-31T09:43:50;16.10;86.40
47590;DHT22;33316;52.298;9.056;2022-10-31T09:46:27;16.20;86.50
47590;DHT22;33316;52.298;9.056;2022-10-31T09:49:16;16.20;86.30
47590;DHT22;33316;52.298;9.056;2022-10-31T09:51:53;16.30;86.00
47590;DHT22;33316;52.298;9.056;2022-10-31T09:54:27;16.30;85.60
47590;DHT22;33316;52.298;9.056;2022-10-31T09:56:56;16.30;85.20
47590;DHT22;33316;52.298;9.056;2022-10-31T09:59:29;16.40;85.00
47590;DHT22;33316;52.298;9.056;2022-10-31T10:01:57;16.50;84.60
47590;DHT22;33316;52.298;9.056;2022-10-31T10:04:33;16.40;84.20
47590;DHT22;33316;52.298;9.056;2022-10-31T10:07:05;16.50;84.00
47590;DHT22;33316;52.298;9.056;2022-10-31T10:09:34;16.50;83.80
47590;DHT22;33316;52.298;9.056;2022-10-31T10:12:09;16.50;83.70
47590;DHT22;33316;52.298;9.056;2022-10-31T10:14:56;16.60;83.50
47590;DHT22;33316;52.298;9.056;2022-10-31T10:17:35;16.60;83.30
47590;DHT22;33316;52.298;9.056;2022-10-31T10:20:18;16.60;83.00
47590;DHT22;33316;52.298;9.056;2022-10-31T10:22:54;16.60;82.80
47590;DHT22;33316;52.298;9.056;2022-10-31T10:25:23;16.70;82.80
47590;DHT22;33316;52.298;9.056;2022-10-31T10:28:06;16.80;82.80
47590;DHT22;33316;52.298;9.056;2022-10-31T10:30:39;16.80;82.60
47590;DHT22;33316;52.298;9.056;2022-10-31T10:33:11;16.80;83.20
47590;DHT22;33316;52.298;9.056;2022-10-31T10:35:43;16.90;82.30
47590;DHT22;33316;52.298;9.056;2022-10-31T10:38:17;16.90;82.20
47590;DHT22;33316;52.298;9.056;2022-10-31T10:40:46;17.00;82.20
47590;DHT22;33316;52.298;9.056;2022-10-31T10:43:21;17.00;82.10
47590;DHT22;33316;52.298;9.056;2022-10-31T10:45:59;17.10;82.00
47590;DHT22;33316;52.298;9.056;2022-10-31T10:48:46;17.10;81.80
47590;DHT22;33316;52.298;9.056;2022-10-31T10:51:21;17.10;82.50
47590;DHT22;33316;52.298;9.056;2022-10-31T10:53:58;17.20;81.70
47590;DHT22;33316;52.298;9.056;2022-10-31T10:56:40;17.20;81.60
47590;DHT22;33316;52.298;9.056;2022-10-31T10:59:12;17.30;81.50
47590;DHT22;33316;52.298;9.056;2022-10-31T11:01:40;17.30;81.30
47590;DHT22;33316;52.298;9.056;2022-10-31T11:04:29;17.30;81.20
47590;DHT22;33316;52.298;9.056;2022-10-31T11:07:02;17.40;81.10
47590;DHT22;33316;52.298;9.056;2022-10-31T11:09:30;17.40;80.90
47590;DHT22;33316;52.298;9.056;2022-10-31T11:11:57;17.50;81.00
47590;DHT22;33316;52.298;9.056;2022-10-31T11:14:25;17.50;80.70
47590;DHT22;33316;52.298;9.056;2022-10-31T11:17:06;17.50;80.60
47590;DHT22;33316;52.298;9.056;2022-10-31T11:19:34;17.50;80.30
47590;DHT22;33316;52.298;9.056;2022-10-31T11:22:08;17.60;80.00
47590;DHT22;33316;52.298;9.056;2022-10-31T11:24:40;17.60;79.80
47590;DHT22;33316;52.298;9.056;2022-10-31T11:27:14;17.60;79.50
47590;DHT22;33316;52.298;9.056;2022-10-31T11:29:41;17.70;79.50
47590;DHT22;33316;52.298;9.056;2022-10-31T11:32:18;17.70;79.20
47590;DHT22;33316;52.298;9.056;2022-10-31T11:34:47;17.70;78.90
47590;DHT22;33316;52.298;9.056;2022-10-31T11:37:18;17.70;78.70
47590;DHT22;33316;52.298;9.056;2022-10-31T11:39:49;17.70;78.30
47590;DHT22;33316;52.298;9.056;2022-10-31T11:42:20;17.70;78.30
47590;DHT22;33316;52.298;9.056;2022-10-31T11:44:48;17.70;78.30
47590;DHT22;33316;52.298;9.056;2022-10-31T11:47:18;17.70;78.20
47590;DHT22;33316;52.298;9.056;2022-10-31T11:49:48;17.80;78.00
47590;DHT22;33316;52.298;9.056;2022-10-31T11:52:20;17.80;77.60
47590;DHT22;33316;52.298;9.056;2022-10-31T11:54:49;17.80;77.50
47590;DHT22;33316;52.298;9.056;2022-10-31T11:57:25;17.80;77.40
47590;DHT22;33316;52.298;9.056;2022-10-31T11:59:53;17.80;77.40
47590;DHT22;33316;52.298;9.056;2022-10-31T12:02:20;17.90;77.30
47590;DHT22;33316;52.298;9.056;2022-10-31T12:04:52;17.90;77.20
47590;DHT22;33316;52.298;9.056;2022-10-31T12:07:22;18.00;77.10
47590;DHT22;33316;52.298;9.056;2022-10-31T12:09:49;18.00;76.80
47590;DHT22;33316;52.298;9.056;2022-10-31T12:15:27;18.10;76.40
47590;DHT22;33316;52.298;9.056;2022-10-31T12:18:03;18.10;76.20
47590;DHT22;33316;52.298;9.056;2022-10-31T12:20:40;18.10;75.80
47590;DHT22;33316;52.298;9.056;2022-10-31T12:23:15;18.10;75.60
47590;DHT22;33316;52.298;9.056;2022-10-31T12:25:50;18.10;75.60
47590;DHT22;33316;52.298;9.056;2022-10-31T12:31:29;18.10;75.80
47590;DHT22;33316;52.298;9.056;2022-10-31T12:34:11;18.10;76.10
47590;DHT22;33316;52.298;9.056;2022-10-31T12:36:49;18.10;76.40
47590;DHT22;33316;52.298;9.056;2022-10-31T12:39:32;18.10;76.70
47590;DHT22;33316;52.298;9.056;2022-10-31T12:42:08;18.00;76.70
47590;DHT22;33316;52.298;9.056;2022-10-31T12:45:00;18.00;77.60
47590;DHT22;33316;52.298;9.056;2022-10-31T12:47:46;18.00;77.00
47590;DHT22;33316;52.298;9.056;2022-10-31T12:50:24;18.00;77.00
47590;DHT22;33316;52.298;9.056;2022-10-31T12:53:01;18.00;77.10
47590;DHT22;33316;52.298;9.056;2022-10-31T12:55:40;18.00;77.10
47590;DHT22;33316;52.298;9.056;2022-10-31T12:58:10;18.10;77.00
47590;DHT22;33316;52.298;9.056;2022-10-31T13:00:44;18.10;77.00
47590;DHT22;33316;52.298;9.056;2022-10-31T13:03:23;18.10;76.90
47590;DHT22;33316;52.298;9.056;2022-10-31T13:05:54;18.10;76.90
47590;DHT22;33316;52.298;9.056;2022-10-31T13:08:28;18.10;76.90
47590;DHT22;33316;52.298;9.056;2022-10-31T13:11:05;18.10;76.80
47590;DHT22;33316;52.298;9.056;2022-10-31T13:13:35;18.10;77.00
47590;DHT22;33316;52.298;9.056;2022-10-31T13:16:04;18.20;77.20
47590;DHT22;33316;52.298;9.056;2022-10-31T13:18:39;18.10;77.20
47590;DHT22;33316;52.298;9.056;2022-10-31T13:21:10;18.20;77.20
47590;DHT22;33316;52.298;9.056;2022-10-31T13:23:39;18.20;77.20
47590;DHT22;33316;52.298;9.056;2022-10-31T13:26:11;18.10;77.10
47590;DHT22;33316;52.298;9.056;2022-10-31T13:28:43;18.10;77.40
47590;DHT22;33316;52.298;9.056;2022-10-31T13:31:11;18.20;77.60
47590;DHT22;33316;52.298;9.056;2022-10-31T13:33:40;18.10;77.70
47590;DHT22;33316;52.298;9.056;2022-10-31T13:36:18;18.10;77.90
47590;DHT22;33316;52.298;9.056;2022-10-31T13:38:51;18.10;78.30
47590;DHT22;33316;52.298;9.056;2022-10-31T13:41:32;18.10;78.50
47590;DHT22;33316;52.298;9.056;2022-10-31T13:44:11;18.10;78.70
47590;DHT22;33316;52.298;9.056;2022-10-31T13:46:41;18.00;78.90
47590;DHT22;33316;52.298;9.056;2022-10-31T13:49:38;18.00;79.00
47590;DHT22;33316;52.298;9.056;2022-10-31T13:52:16;17.90;79.40
47590;DHT22;33316;52.298;9.056;2022-10-31T13:54:49;18.00;79.50
47590;DHT22;33316;52.298;9.056;2022-10-31T13:57:30;17.90;79.50
47590;DHT22;33316;52.298;9.056;2022-10-31T14:00:00;17.90;79.50
47590;DHT22;33316;52.298;9.056;2022-10-31T14:02:29;17.90;79.50
47590;DHT22;33316;52.298;9.056;2022-10-31T14:04:58;17.90;79.60
47590;DHT22;33316;52.298;9.056;2022-10-31T14:07:27;17.90;79.60
47590;DHT22;33316;52.298;9.056;2022-10-31T14:09:57;17.90;79.60
47590;DHT22;33316;52.298;9.056;2022-10-31T14:12:30;17.90;79.60
47590;DHT22;33316;52.298;9.056;2022-10-31T14:15:00;17.90;79.80
47590;DHT22;33316;52.298;9.056;2022-10-31T14:17:29;17.90;79.80
47590;DHT22;33316;52.298;9.056;2022-10-31T14:20:25;17.90;79.80
47590;DHT22;33316;52.298;9.056;2022-10-31T14:22:52;17.80;80.00
47590;DHT22;33316;52.298;9.056;2022-10-31T14:25:30;17.80;79.90
47590;DHT22;33316;52.298;9.056;2022-10-31T14:28:00;17.80;80.00
47590;DHT22;33316;52.298;9.056;2022-10-31T14:30:29;17.80;80.00
47590;DHT22;33316;52.298;9.056;2022-10-31T14:32:58;17.80;80.20
47590;DHT22;33316;52.298;9.056;2022-10-31T14:35:34;17.80;80.30
47590;DHT22;33316;52.298;9.056;2022-10-31T14:38:18;17.70;80.40
47590;DHT22;33316;52.298;9.056;2022-10-31T14:40:59;17.80;80.70
47590;DHT22;33316;52.298;9.056;2022-10-31T14:43:48;17.70;80.70
47590;DHT22;33316;52.298;9.056;2022-10-31T14:46:25;17.70;80.80
47590;DHT22;33316;52.298;9.056;2022-10-31T14:49:12;17.70;80.80
47590;DHT22;33316;52.298;9.056;2022-10-31T14:51:44;17.70;81.00
47590;DHT22;33316;52.298;9.056;2022-10-31T14:54:15;17.70;81.00
47590;DHT22;33316;52.298;9.056;2022-10-31T14:56:48;17.70;81.00
47590;DHT22;33316;52.298;9.056;2022-10-31T14:59:21;17.70;81.10
47590;DHT22;33316;52.298;9.056;2022-10-31T15:01:55;17.70;81.20
47590;DHT22;33316;52.298;9.056;2022-10-31T15:04:25;17.60;82.10
47590;DHT22;33316;52.298;9.056;2022-10-31T15:06:58;17.60;81.40
47590;DHT22;33316;52.298;9.056;2022-10-31T15:09:29;17.60;81.50
47590;DHT22;33316;52.298;9.056;2022-10-31T15:11:58;17.60;81.60
47590;DHT22;33316;52.298;9.056;2022-10-31T15:14:27;17.50;81.60
47590;DHT22;33316;52.298;9.056;2022-10-31T15:16:57;17.50;81.60
47590;DHT22;33316;52.298;9.056;2022-10-31T15:19:26;17.60;81.60
47590;DHT22;33316;52.298;9.056;2022-10-31T15:21:54;17.60;81.60
47590;DHT22;33316;52.298;9.056;2022-10-31T15:24:24;17.50;81.60
47590;DHT22;33316;52.298;9.056;2022-10-31T15:26:55;17.50;81.50
47590;DHT22;33316;52.298;9.056;2022-10-31T15:29:24;17.50;81.50
47590;DHT22;33316;52.298;9.056;2022-10-31T15:31:54;17.50;81.50
47590;DHT22;33316;52.298;9.056;2022-10-31T15:34:26;17.50;81.50
47590;DHT22;33316;52.298;9.056;2022-10-31T15:36:54;17.50;81.50
47590;DHT22;33316;52.298;9.056;2022-10-31T15:39:21;17.50;81.50
47590;DHT22;33316;52.298;9.056;2022-10-31T15:41:50;17.50;81.50
47590;DHT22;33316;52.298;9.056;2022-10-31T15:44:22;17.40;81.50
47590;DHT22;33316;52.298;9.056;2022-10-31T15:46:57;17.40;81.60
47590;DHT22;33316;52.298;9.056;2022-10-31T15:49:32;17.40;81.70
47590;DHT22;33316;52.298;9.056;2022-10-31T15:52:06;17.40;81.70
47590;DHT22;33316;52.298;9.056;2022-10-31T15:54:35;17.40;81.80
47590;DHT22;33316;52.298;9.056;2022-10-31T15:57:10;17.40;81.80
47590;DHT22;33316;52.298;9.056;2022-10-31T15:59:37;17.40;81.90
47590;DHT22;33316;52.298;9.056;2022-10-31T16:02:10;17.40;81.90
47590;DHT22;33316;52.298;9.056;2022-10-31T16:04:37;17.40;82.00